Lake Placid, NY

1:55 PM EST on December 25, 2014 (GMT -0500)
Plattsburgh International | Change Station
CLOSE
Current Station
Airport
Location: Plattsburgh,
Elevation: 236 ft
Nearby Weather Stations
Active Advisory: Flood Warning Active Notice: Public Information Statement

Elev 236 ft 44.65 °N, 73.47 °W | Updated 1 hour ago

Overcast
Overcast
45 °F
Feels Like 40 °F
N
9
Wind Variable Wind from WSW
Gusts 24 mph

Today
High -- | Low -- °F
--% Chance of Precip.
Yesterday
High -- | Low -- °F
Precip. -- in
7:30 AM 4:22 PM
Waxing Crescent, 18% visible
Pressure 29.54 in
Visibility 10.0 miles
Clouds Scattered Clouds 3700 ft
Overcast 4800 ft
Windchill 40 °F
Dew Point 33 °F
Humidity 63%
Rainfall 0.04 in
Snow Depth Not available.
UV 0 out of 12
Pollen .10 out of 12
Air Quality Not available.
Flu Activity Not available.
METAR KPBG 251753Z AUTO 24008G21KT 210V270 10SM SCT037 OVC048 07/01 A2953 RMK AO2 SLP002 T00720006 10089 20072 51028

More Conditions Fewer Conditions

Pressure 29.54 in
Visibility 10.0 miles
Clouds Scattered Clouds 3700 ft
Overcast 4800 ft
Windchill 40 °F
Dew Point 33 °F
Humidity 63%
Rainfall 0.04 in
Snow Depth Not available.
UV 0 out of 12
Pollen .10 out of 12
Air Quality Not available.
Flu Activity Not available.
METAR KPBG 251753Z AUTO 24008G21KT 210V270 10SM SCT037 OVC048 07/01 A2953 RMK AO2 SLP002 T00720006 10089 20072 51028

More Conditions Fewer Conditions

10-Day Weather Forecast

Almanac

Astronomy

Dec. 25, 2014 Rise Set
Actual Time
Civil Twilight
Nautical Twilight
Astronomical Twilight
Moon
Length of Visible Light
Length of Day
Tomorrow will be .
, % of the Moon is Illuminated

Today's Extremes

State Highs State Lows

Community

WunderPhotos

Upload Photos

1,780,358 photos uploaded!

WunderBlogs® & News

Nearby

Air Quality

  Air Quality AQ Index Pollutant
Not available.

Snow Depth

Station Depth Elevation

Earthquake Activity

City Distance Mag. Time & Date
Minimum magnitude displayed is 2.5.

Coastal Water Temperatures

Place Temperature

Nearby Weather Stations